createdAt,value
2019-01-05T00:00:35.005Z,17.13
2019-01-05T00:03:38.457Z,16.87
2019-01-05T00:06:31.342Z,17.47
2019-01-05T00:09:38.107Z,17.97
2019-01-05T00:12:32.593Z,19.40
2019-01-05T00:15:27.565Z,14.37
2019-01-05T00:18:32.010Z,16.37
2019-01-05T00:21:41.066Z,19.60
2019-01-05T00:24:32.685Z,18.43
2019-01-05T00:27:30.585Z,14.87
2019-01-05T00:30:19.915Z,16.63
2019-01-05T00:33:17.886Z,17.33
2019-01-05T00:36:44.940Z,17.83
2019-01-05T00:39:32.311Z,15.23
2019-01-05T00:42:21.406Z,14.83
2019-01-05T00:45:09.602Z,14.77
2019-01-05T00:48:06.152Z,15.90
2019-01-05T00:50:53.446Z,16.90
2019-01-05T00:54:00.297Z,15.67
2019-01-05T00:56:47.723Z,14.53
2019-01-05T00:59:43.452Z,13.17
2019-01-05T01:02:28.909Z,13.23
2019-01-05T01:05:16.717Z,12.77
2019-01-05T01:08:14.261Z,16.83
2019-01-05T01:11:02.666Z,14.80
2019-01-05T01:13:51.056Z,14.80
2019-01-05T01:16:45.671Z,12.07
2019-01-05T01:19:34.055Z,11.53
2019-01-05T01:22:21.481Z,9.90
2019-01-05T01:25:16.882Z,10.60
2019-01-05T01:28:05.659Z,13.57
2019-01-05T01:31:05.854Z,13.87
2019-01-05T01:34:01.314Z,12.03
2019-01-05T01:37:00.749Z,11.13
2019-01-05T01:39:58.768Z,9.20
2019-01-05T01:43:02.783Z,10.33
2019-01-05T01:46:07.122Z,12.43
2019-01-05T01:48:48.570Z,16.93
2019-01-05T01:51:40.221Z,12.80
2019-01-05T01:54:31.852Z,13.63
2019-01-05T01:57:25.782Z,11.50
2019-01-05T02:00:20.785Z,13.03
2019-01-05T02:03:08.832Z,11.33
2019-01-05T02:06:01.292Z,14.43
2019-01-05T02:09:00.980Z,13.23
2019-01-05T02:11:43.282Z,12.63
2019-01-05T02:14:38.088Z,14.03
2019-01-05T02:17:32.447Z,13.47
2019-01-05T02:21:07.171Z,15.60
2019-01-05T02:24:26.197Z,15.23
2019-01-05T02:28:05.304Z,16.77
2019-01-05T02:31:19.792Z,12.50
2019-01-05T02:34:46.836Z,13.63
2019-01-05T02:38:04.234Z,13.17
2019-01-05T02:41:36.016Z,14.50
2019-01-05T02:44:51.776Z,14.63
2019-01-05T02:48:43.527Z,15.43
2019-01-05T02:51:59.840Z,16.03
2019-01-05T02:55:20.973Z,16.13
2019-01-05T02:58:51.606Z,16.23
2019-01-05T03:02:42.842Z,15.83
2019-01-05T03:05:54.326Z,14.20
2019-01-05T03:09:21.422Z,15.23
2019-01-05T03:12:58.970Z,13.27
2019-01-05T03:16:13.853Z,15.07
2019-01-05T03:20:07.289Z,13.57
2019-01-05T03:23:30.530Z,14.87
2019-01-05T03:27:12.526Z,13.50
2019-01-05T03:30:32.860Z,12.07
2019-01-05T03:34:15.525Z,12.27
2019-01-05T03:37:43.653Z,11.60
2019-01-05T03:41:01.587Z,11.00
2019-01-05T03:44:51.993Z,11.83
2019-01-05T03:48:32.290Z,12.33
2019-01-05T03:51:43.899Z,15.57
2019-01-05T03:55:08.081Z,15.33
2019-01-05T03:58:48.915Z,11.97
2019-01-05T04:02:01.545Z,11.90
2019-01-05T04:05:40.405Z,11.93
2019-01-05T04:09:00.278Z,16.50
2019-01-05T04:12:33.795Z,13.17
2019-01-05T04:16:13.715Z,12.13
2019-01-05T04:20:03.247Z,13.23
2019-01-05T04:23:33.365Z,12.97
2019-01-05T04:27:23.388Z,15.97
2019-01-05T04:31:04.055Z,14.83
2019-01-05T04:34:21.513Z,13.20
2019-01-05T04:37:53.866Z,12.87
2019-01-05T04:41:34.374Z,17.17
2019-01-05T04:44:51.098Z,14.30
2019-01-05T04:48:11.148Z,14.83
2019-01-05T04:51:37.202Z,13.07
2019-01-05T04:54:58.262Z,16.30
2019-01-05T04:58:20.687Z,15.30
2019-01-05T05:01:45.328Z,14.13
2019-01-05T05:05:05.987Z,14.20
2019-01-05T05:08:38.345Z,13.13
2019-01-05T05:12:31.004Z,13.97
2019-01-05T05:16:00.149Z,14.23
2019-01-05T05:19:46.587Z,14.80
2019-01-05T05:23:32.499Z,14.90
2019-01-05T05:27:04.580Z,13.40
2019-01-05T05:30:26.411Z,15.57
2019-01-05T05:33:57.763Z,15.13
2019-01-05T05:38:08.297Z,12.83
2019-01-05T05:41:27.560Z,13.67
2019-01-05T05:44:50.698Z,14.57
2019-01-05T05:48:05.605Z,16.20
2019-01-05T05:51:37.029Z,11.93
2019-01-05T05:55:14.515Z,14.47
2019-01-05T05:58:50.955Z,16.23
2019-01-05T06:02:20.197Z,16.10
2019-01-05T06:05:59.391Z,14.77
2019-01-05T06:09:39.235Z,14.67
2019-01-05T06:13:19.494Z,17.50
2019-01-05T06:16:58.821Z,15.60
2019-01-05T06:20:30.298Z,17.27
2019-01-05T06:24:20.705Z,15.87
2019-01-05T06:28:10.726Z,17.57
2019-01-05T06:31:43.136Z,18.97
2019-01-05T06:35:22.065Z,18.03
2019-01-05T06:38:45.433Z,17.57
2019-01-05T06:42:11.489Z,20.60
2019-01-05T06:45:39.456Z,17.97
2019-01-05T06:53:02.054Z,15.20
2019-01-05T06:56:31.902Z,16.23
2019-01-05T06:59:46.519Z,17.97
2019-01-05T07:03:13.093Z,15.60
2019-01-05T07:06:58.113Z,16.50
2019-01-05T07:10:27.406Z,15.47
2019-01-05T07:14:14.925Z,16.37
2019-01-05T07:17:38.322Z,16.33
2019-01-05T07:21:09.553Z,17.23
2019-01-05T07:24:39.578Z,14.20
2019-01-05T07:28:03.566Z,14.63
2019-01-05T07:31:25.526Z,15.00
2019-01-05T07:34:55.502Z,14.83
2019-01-05T07:38:17.244Z,14.87
2019-01-05T07:41:54.201Z,16.30
2019-01-05T07:45:13.533Z,16.57
2019-01-05T07:48:44.555Z,17.00
2019-01-05T07:52:07.556Z,19.73
2019-01-05T07:56:00.133Z,16.57
2019-01-05T08:00:06.081Z,19.60
2019-01-05T08:03:32.679Z,20.33
2019-01-05T08:07:10.487Z,17.40
2019-01-05T08:10:34.015Z,17.93
2019-01-05T08:14:06.105Z,17.50
2019-01-05T08:17:57.993Z,14.27
2019-01-05T08:21:32.623Z,16.37
2019-01-05T08:25:07.094Z,16.43
2019-01-05T08:28:36.909Z,11.47
2019-01-05T08:32:12.841Z,10.27
2019-01-05T08:35:48.288Z,10.70
2019-01-05T08:39:14.894Z,11.70
2019-01-05T08:42:37.773Z,10.37
2019-01-05T08:46:15.006Z,11.70
2019-01-05T08:49:51.653Z,12.70
2019-01-05T08:53:12.859Z,13.73
2019-01-05T08:57:00.135Z,11.00
2019-01-05T09:00:29.035Z,12.60
2019-01-05T09:04:05.232Z,11.20
2019-01-05T09:07:58.514Z,11.73
2019-01-05T09:11:32.886Z,12.90
2019-01-05T09:15:24.444Z,12.93
2019-01-05T09:19:06.738Z,11.87
2019-01-05T09:22:43.940Z,11.77
2019-01-05T09:27:01.727Z,15.07
2019-01-05T09:30:29.889Z,12.13
2019-01-05T09:33:54.190Z,11.83
2019-01-05T09:37:14.027Z,13.60
2019-01-05T09:40:42.819Z,12.73
2019-01-05T09:44:38.390Z,11.43
2019-01-05T09:48:00.646Z,11.77
2019-01-05T09:51:38.221Z,11.63
2019-01-05T09:55:18.567Z,13.17
2019-01-05T09:58:30.816Z,15.00
2019-01-05T10:01:54.119Z,10.77
2019-01-05T10:05:14.481Z,11.43
2019-01-05T10:08:46.151Z,12.20
2019-01-05T10:12:20.917Z,14.27
2019-01-05T10:15:48.103Z,12.77
2019-01-05T10:19:17.331Z,11.53
2019-01-05T10:22:39.129Z,12.93
2019-01-05T10:26:12.794Z,13.10
2019-01-05T10:29:38.976Z,15.17
2019-01-05T10:33:02.570Z,10.77
2019-01-05T10:36:55.939Z,10.73
2019-01-05T10:40:23.335Z,15.70
2019-01-05T10:43:53.664Z,12.90
2019-01-05T10:47:14.328Z,12.40
2019-01-05T10:51:09.570Z,12.40
2019-01-05T10:54:41.765Z,12.87
2019-01-05T10:58:12.409Z,12.53
2019-01-05T11:01:29.599Z,12.60
2019-01-05T11:05:00.382Z,12.23
2019-01-05T11:08:27.881Z,12.40
2019-01-05T11:12:01.222Z,14.83
2019-01-05T11:15:41.133Z,11.77
2019-01-05T11:19:22.322Z,11.63
2019-01-05T11:22:48.456Z,12.50
2019-01-05T11:26:30.531Z,10.70
2019-01-05T11:29:56.663Z,12.40
2019-01-05T11:33:22.749Z,16.73
2019-01-05T11:36:52.907Z,14.10
2019-01-05T11:40:14.428Z,15.17
2019-01-05T11:43:32.117Z,13.23
2019-01-05T11:46:43.764Z,12.30
2019-01-05T11:50:27.180Z,11.63
2019-01-05T11:53:49.924Z,10.17
2019-01-05T11:57:24.063Z,11.57
2019-01-05T12:01:22.774Z,10.57
2019-01-05T12:05:03.389Z,15.17
2019-01-05T12:08:27.010Z,12.33
2019-01-05T12:12:01.479Z,10.30
2019-01-05T12:15:32.581Z,10.43
2019-01-05T12:18:59.797Z,10.77
2019-01-05T12:22:33.952Z,10.20
2019-01-05T12:26:14.368Z,9.17
2019-01-05T12:30:15.497Z,10.13
2019-01-05T12:33:48.874Z,11.47
2019-01-05T12:37:48.490Z,12.73
2019-01-05T12:41:41.627Z,12.37
2019-01-05T12:45:13.356Z,10.30
2019-01-05T12:48:43.394Z,10.77
2019-01-05T12:52:15.787Z,10.87
2019-01-05T12:56:00.970Z,14.03
2019-01-05T12:59:49.170Z,10.47
2019-01-05T13:03:26.290Z,13.47
2019-01-05T13:06:41.480Z,12.77
2019-01-05T13:10:11.941Z,14.57
2019-01-05T13:13:49.149Z,13.07
2019-01-05T13:17:17.238Z,11.40
2019-01-05T13:20:44.833Z,14.57
2019-01-05T13:24:16.960Z,11.33
2019-01-05T13:27:50.554Z,11.83
2019-01-05T13:31:42.713Z,13.50
2019-01-05T13:35:37.307Z,12.57
2019-01-05T13:39:40.006Z,16.53
2019-01-05T13:43:18.405Z,16.07
2019-01-05T13:47:08.602Z,13.13
2019-01-05T13:50:57.760Z,16.63
2019-01-05T13:53:59.177Z,15.40
2019-01-05T13:56:55.751Z,18.30
2019-01-05T13:59:59.649Z,16.23
2019-01-05T14:02:46.945Z,11.80
2019-01-05T14:05:53.755Z,16.20
2019-01-05T14:08:40.846Z,19.33
2019-01-05T14:11:32.502Z,14.93
2019-01-05T14:14:24.234Z,15.60
2019-01-05T14:17:24.592Z,14.77
2019-01-05T14:20:25.000Z,18.13
2019-01-05T14:23:19.385Z,16.07
2019-01-05T14:26:06.655Z,14.27
2019-01-05T14:28:54.057Z,14.93
2019-01-05T14:31:48.468Z,15.70
2019-01-05T14:34:35.595Z,13.80
2019-01-05T14:37:20.312Z,15.73
2019-01-05T14:40:20.932Z,13.63
2019-01-05T14:43:20.464Z,15.10
2019-01-05T14:46:08.872Z,14.70
2019-01-05T14:49:09.691Z,18.73
2019-01-05T14:52:10.379Z,16.57
2019-01-05T14:55:09.392Z,16.20
2019-01-05T14:57:57.809Z,17.27
2019-01-05T15:00:48.218Z,14.43
2019-01-05T15:03:45.617Z,15.53
2019-01-05T15:06:39.815Z,17.37
2019-01-05T15:09:34.330Z,18.50
2019-01-05T15:12:28.744Z,21.77
2019-01-05T15:15:20.131Z,22.67
2019-01-05T15:18:08.522Z,17.73
2019-01-05T15:20:55.807Z,18.90
2019-01-05T15:23:53.009Z,20.13
2019-01-05T15:26:56.850Z,18.80
2019-01-05T15:30:03.650Z,27.73
2019-01-05T15:33:00.875Z,28.33
2019-01-05T15:35:51.820Z,35.03
2019-01-05T15:38:39.056Z,28.63
2019-01-05T15:41:30.432Z,24.77
2019-01-05T15:44:30.921Z,27.20
2019-01-05T15:47:19.324Z,29.10
2019-01-05T15:50:07.688Z,22.17
2019-01-05T15:52:54.966Z,20.77
2019-01-05T15:55:39.740Z,22.83
2019-01-05T15:58:31.138Z,21.50
2019-01-05T16:01:18.083Z,21.97
2019-01-05T16:04:06.498Z,23.63
2019-01-05T16:07:13.582Z,22.40
2019-01-05T16:10:17.072Z,21.33
2019-01-05T16:13:11.176Z,24.10
2019-01-05T16:15:59.609Z,23.10
2019-01-05T16:18:51.157Z,23.50
2019-01-05T16:21:48.933Z,22.67
2019-01-05T16:24:36.213Z,28.27
2019-01-05T16:27:33.972Z,27.80
2019-01-05T16:30:21.274Z,24.80
2019-01-05T16:33:19.000Z,25.87
2019-01-05T16:36:06.903Z,22.93
2019-01-05T16:39:13.429Z,25.30
2019-01-05T16:41:51.610Z,25.80
2019-01-05T16:44:49.122Z,28.90
2019-01-05T16:47:40.300Z,27.30
2019-01-05T16:50:27.642Z,26.67
2019-01-05T16:53:16.237Z,33.13
2019-01-05T16:56:07.093Z,28.50
2019-01-05T16:59:14.088Z,28.47
2019-01-05T17:02:03.562Z,31.47
2019-01-05T17:04:50.817Z,35.73
2019-01-05T17:07:38.003Z,32.27
2019-01-05T17:10:35.844Z,32.83
2019-01-05T17:13:23.250Z,34.87
2019-01-05T17:16:11.683Z,36.67
2019-01-05T17:19:05.214Z,32.80
2019-01-05T17:22:05.661Z,31.00
2019-01-05T17:24:54.050Z,24.60
2019-01-05T17:27:51.788Z,22.53
2019-01-05T17:30:55.420Z,25.07
2019-01-05T17:33:42.835Z,29.30
2019-01-05T17:36:43.569Z,32.87
2019-01-05T17:39:30.693Z,31.80
2019-01-05T17:42:17.675Z,35.00
2019-01-05T17:45:15.985Z,41.97
2019-01-05T17:48:03.061Z,32.80
2019-01-05T17:50:51.510Z,30.50
2019-01-05T17:53:39.894Z,26.70
2019-01-05T17:56:27.556Z,30.40
2019-01-05T17:59:15.965Z,28.40
2019-01-05T18:02:16.723Z,30.47
2019-01-05T18:05:19.612Z,29.00
2019-01-05T18:08:06.646Z,31.27
2019-01-05T18:10:55.081Z,40.13
2019-01-05T18:13:42.454Z,33.17
2019-01-05T18:16:44.260Z,36.57
2019-01-05T18:19:41.766Z,28.47
2019-01-05T18:22:39.422Z,27.10
2019-01-05T18:25:40.367Z,29.23
2019-01-05T18:28:26.824Z,24.00
2019-01-05T18:31:18.473Z,25.47
2019-01-05T18:34:08.929Z,24.20
2019-01-05T18:36:59.628Z,31.67
2019-01-05T18:39:48.144Z,31.17
2019-01-05T18:43:06.686Z,31.10
2019-01-05T18:45:57.894Z,30.60
2019-01-05T18:48:44.935Z,33.93
2019-01-05T18:51:39.553Z,39.60
2019-01-05T18:54:31.026Z,39.83
2019-01-05T18:57:28.785Z,47.53
2019-01-05T19:00:20.440Z,48.70
2019-01-05T19:03:24.314Z,49.57
2019-01-05T19:06:11.477Z,53.20
2019-01-05T19:12:18.230Z,46.57
2019-01-05T19:15:22.065Z,52.13
2019-01-05T19:18:13.064Z,51.37
2019-01-05T19:21:01.662Z,46.03
2019-01-05T19:23:52.342Z,40.67
2019-01-05T19:26:40.071Z,44.47
2019-01-05T19:29:25.420Z,33.90
2019-01-05T19:32:16.941Z,31.17
2019-01-05T19:35:06.819Z,24.60
2019-01-05T19:37:54.406Z,21.10
2019-01-05T19:40:42.803Z,22.07
2019-01-05T19:43:36.439Z,19.40
2019-01-05T19:46:36.834Z,19.63
2019-01-05T19:49:37.742Z,19.00
2019-01-05T19:52:24.757Z,30.37
2019-01-05T19:55:22.628Z,43.33
2019-01-05T19:58:29.254Z,39.43
2019-01-05T20:01:26.533Z,24.37
2019-01-05T20:04:20.706Z,27.57
2019-01-05T20:07:21.608Z,34.07
2019-01-05T20:10:08.754Z,37.57
2019-01-05T20:13:00.377Z,39.73
2019-01-05T20:15:58.096Z,41.00
2019-01-05T20:18:45.369Z,43.87
2019-01-05T20:21:30.621Z,42.23
2019-01-05T20:24:17.767Z,42.30
2019-01-05T20:27:24.537Z,43.57
2019-01-05T20:30:17.821Z,49.57
2019-01-05T20:33:06.187Z,49.80
2019-01-05T20:35:49.046Z,47.33
2019-01-05T20:38:36.085Z,45.40
2019-01-05T20:41:27.357Z,45.67
2019-01-05T20:44:08.513Z,42.90
2019-01-05T20:46:59.705Z,39.20
2019-01-05T20:49:49.927Z,42.00
2019-01-05T20:52:47.206Z,44.03
2019-01-05T20:55:35.716Z,46.33
2019-01-05T20:58:23.159Z,32.70
2019-01-05T21:01:10.523Z,39.17
2019-01-05T21:04:08.315Z,45.80
2019-01-05T21:07:11.758Z,41.60
2019-01-05T21:10:18.358Z,43.00
2019-01-05T21:13:05.555Z,42.27
2019-01-05T21:15:52.480Z,61.77
2019-01-05T21:18:39.730Z,42.03
2019-01-05T21:21:26.982Z,42.13
2019-01-05T21:24:14.362Z,39.60
2019-01-05T21:27:02.785Z,35.07
2019-01-05T21:29:50.263Z,38.77
2019-01-05T21:32:38.969Z,42.43
2019-01-05T21:35:36.455Z,87.77
2019-01-05T21:38:24.867Z,49.60
2019-01-05T21:41:28.632Z,45.70
2019-01-05T21:44:30.568Z,41.97
2019-01-05T21:47:31.084Z,47.63
2019-01-05T21:50:18.231Z,29.33
2019-01-05T21:53:02.054Z,29.03
2019-01-05T21:55:48.989Z,24.87
2019-01-05T21:58:53.052Z,25.10
2019-01-05T22:01:50.633Z,26.33
2019-01-05T22:04:37.923Z,25.00
2019-01-05T22:07:23.452Z,35.47
2019-01-05T22:10:21.004Z,41.53
2019-01-05T22:13:13.560Z,36.83
2019-01-05T22:16:17.304Z,35.77
2019-01-05T22:19:13.952Z,31.63
2019-01-05T22:22:01.183Z,36.63
2019-01-05T22:24:45.813Z,34.07
2019-01-05T22:27:33.106Z,35.50
2019-01-05T22:30:24.859Z,32.33
2019-01-05T22:33:12.211Z,31.37
2019-01-05T22:36:05.542Z,34.93
2019-01-05T22:38:52.539Z,35.13
2019-01-05T22:41:53.173Z,34.53
2019-01-05T22:44:50.535Z,36.23
2019-01-05T22:47:42.040Z,38.73
2019-01-05T22:50:30.442Z,38.33
2019-01-05T22:53:17.566Z,41.90
2019-01-05T22:56:14.587Z,40.53
2019-01-05T22:59:02.989Z,39.17
2019-01-05T23:01:48.507Z,38.17
2019-01-05T23:04:30.833Z,39.27
2019-01-05T23:07:18.062Z,37.60
2019-01-05T23:10:06.434Z,43.07
2019-01-05T23:12:54.813Z,46.23
2019-01-05T23:15:38.274Z,49.20
2019-01-05T23:18:29.461Z,49.17
2019-01-05T23:21:20.744Z,48.90
2019-01-05T23:24:18.287Z,48.07
2019-01-05T23:27:05.615Z,45.53
2019-01-05T23:29:59.793Z,48.53
2019-01-05T23:32:48.330Z,43.97
2019-01-05T23:35:49.011Z,41.70
2019-01-05T23:38:52.724Z,47.27
2019-01-05T23:41:45.424Z,42.87
2019-01-05T23:44:49.073Z,44.13
2019-01-05T23:47:36.561Z,42.33
2019-01-05T23:50:25.312Z,42.57
2019-01-05T23:53:19.785Z,39.43
2019-01-05T23:56:14.019Z,43.23
2019-01-05T23:59:08.577Z,41.50
